Time;durP1;ratioP1;P1;durP2;ratioP2;P2;SDS_P1;SDS_P2;PMS_P1;PMS_P2;Temp;Humidity;BMP_temperature;BMP_pressure;BME280_temperature;BME280_humidity;BME280_pressure;Samples;Min_cycle;Max_cycle;Signal;HPM_P1;HPM_P2
2021/07/18 00:09:58;;;;;;;6.60;6.10;;;;;;;23.41;100.00;100177.53;20903848;28;20280;-66
2021/07/18 00:19:58;;;;;;;5.73;5.30;;;;;;;23.45;100.00;100218.84;20902610;28;20232;-66
2021/07/18 00:29:59;;;;;;;5.80;5.30;;;;;;;23.44;100.00;100206.25;20902766;28;20577;-66
2021/07/18 00:39:59;;;;;;;5.60;5.20;;;;;;;23.23;100.00;100207.81;20902097;28;20215;-66
2021/07/18 00:50:04;;;;;;;6.57;6.03;;;;;;;23.18;100.00;100225.75;20902309;28;20659;-66
2021/07/18 01:00:07;;;;;;;7.93;6.87;;;;;;;23.45;100.00;100202.50;20979519;28;20234;-67
2021/07/18 01:10:09;;;;;;;6.63;6.13;;;;;;;23.79;100.00;100208.31;20983688;28;20207;-66
2021/07/18 01:20:11;;;;;;;5.83;5.33;;;;;;;23.75;100.00;100217.06;20982976;28;20708;-66
2021/07/18 01:30:13;;;;;;;5.80;5.30;;;;;;;23.58;100.00;100210.94;20989857;28;20222;-66
2021/07/18 01:40:14;;;;;;;5.53;5.13;;;;;;;23.60;100.00;100211.59;20998086;28;20230;-65
2021/07/18 01:50:15;;;;;;;4.87;4.50;;;;;;;23.87;100.00;100221.03;20996108;28;20267;-66
2021/07/18 02:00:16;;;;;;;7.20;6.60;;;;;;;24.06;100.00;100215.00;20994048;28;20225;-66
2021/07/18 02:10:19;;;;;;;7.47;6.87;;;;;;;24.33;100.00;100221.72;20995620;28;20720;-65
2021/07/18 02:20:20;;;;;;;7.17;6.47;;;;;;;24.32;100.00;100222.75;20955790;28;20227;-65
2021/07/18 02:30:23;;;;;;;8.17;7.57;;;;;;;24.59;100.00;100232.97;20912127;28;20230;-66
2021/07/18 02:40:30;;;;;;;9.00;8.17;;;;;;;24.67;100.00;100257.41;20911143;28;20310;-68
2021/07/18 02:50:31;;;;;;;8.37;7.67;;;;;;;24.56;100.00;100265.22;20915323;28;20241;-65
2021/07/18 03:00:31;;;;;;;10.57;9.57;;;;;;;24.53;100.00;100239.16;21057517;28;20539;-65
2021/07/18 03:10:32;;;;;;;11.00;10.00;;;;;;;24.43;100.00;100238.63;21056713;28;20571;-73
2021/07/18 03:20:33;;;;;;;10.90;9.97;;;;;;;24.56;100.00;100249.72;21073740;28;20487;-66
2021/07/18 03:30:34;;;;;;;13.00;10.67;;;;;;;24.64;100.00;100251.47;21054891;28;20222;-66
2021/07/18 03:40:34;;;;;;;11.40;10.40;;;;;;;24.87;100.00;100259.53;21054489;28;20252;-74
2021/07/18 03:50:35;;;;;;;11.47;10.47;;;;;;;25.16;100.00;100262.19;21051548;28;20256;-75
2021/07/18 04:00:36;;;;;;;10.63;9.73;;;;;;;25.99;100.00;100249.69;21070790;28;20222;-65
2021/07/18 04:10:36;;;;;;;11.10;9.90;;;;;;;25.93;100.00;100265.00;21070014;28;20245;-67
2021/07/18 04:20:38;;;;;;;11.80;10.80;;;;;;;26.19;100.00;100262.47;21069079;28;20225;-66
2021/07/18 04:30:39;;;;;;;10.63;9.63;;;;;;;26.40;100.00;100277.13;21050997;28;20679;-66
2021/07/18 04:40:39;;;;;;;10.30;9.40;;;;;;;26.41;100.00;100278.81;21060196;28;20371;-65
2021/07/18 04:50:40;;;;;;;11.13;10.07;;;;;;;26.74;100.00;100274.31;21066918;28;20245;-74
2021/07/18 05:00:40;;;;;;;10.87;9.87;;;;;;;26.72;99.25;100279.16;21049405;28;20221;-65
2021/07/18 05:10:41;;;;;;;10.33;9.43;;;;;;;26.71;98.67;100279.34;21083648;28;20251;-69
2021/07/18 05:20:48;;;;;;;9.80;9.00;;;;;;;26.95;95.86;100289.81;21064622;28;20222;-66
2021/07/18 05:30:49;;;;;;;10.63;9.73;;;;;;;27.06;96.22;100291.09;21082758;28;20232;-70
2021/07/18 05:40:49;;;;;;;9.83;8.90;;;;;;;27.20;95.49;100298.31;21047201;28;20218;-73
2021/07/18 05:50:51;;;;;;;10.47;9.57;;;;;;;26.75;95.11;100297.94;21061663;28;20280;-67
2021/07/18 06:00:51;;;;;;;9.70;8.93;;;;;;;27.25;93.84;100304.03;21061937;28;20825;-66
2021/07/18 06:10:52;;;;;;;9.50;8.70;;;;;;;27.52;91.72;100300.28;21079585;28;20233;-66
2021/07/18 06:20:52;;;;;;;9.57;8.67;;;;;;;27.63;89.12;100300.75;21067312;28;25289;-67
2021/07/18 06:30:54;;;;;;;10.17;9.23;;;;;;;27.64;89.23;100296.94;21077895;28;20566;-65
2021/07/18 06:40:55;;;;;;;9.70;8.70;;;;;;;27.73;87.04;100298.44;21077383;28;20221;-74
2021/07/18 06:50:57;;;;;;;10.17;9.20;;;;;;;27.72;86.33;100304.97;21056681;28;20214;-64
2021/07/18 07:00:57;;;;;;;10.23;9.23;;;;;;;28.07;85.45;100303.69;21075349;28;20229;-64
2021/07/18 07:10:58;;;;;;;9.47;8.67;;;;;;;28.96;82.59;100320.41;21072416;28;20296;-64
2021/07/18 07:20:59;;;;;;;9.30;8.50;;;;;;;29.24;78.46;100330.19;20920208;28;20637;-65
2021/07/18 07:31:01;;;;;;;8.43;7.75;;;;;;;29.66;75.11;100326.78;20906475;28;20226;-71
2021/07/18 07:41:02;;;;;;;8.45;7.45;;;;;;;30.05;72.30;100324.81;20906455;28;20638;-63
2021/07/18 07:51:04;;;;;;;7.22;6.72;;;;;;;30.50;70.09;100330.06;20941282;28;20248;-74
2021/07/18 08:01:05;;;;;;;9.23;6.80;;;;;;;29.92;70.40;100335.91;20960032;28;20468;-72
2021/07/18 08:11:07;;;;;;;6.60;6.20;;;;;;;30.05;70.85;100335.81;20971642;28;20211;-78
2021/07/18 08:31:09;;;;;;;7.05;6.10;;;;;;;31.54;60.15;100338.09;20609279;27;8343254;-59
2021/07/18 08:50:19;;;;;;;6.43;5.85;;;;;;;31.82;63.07;100341.09;20587778;27;9054460;-60
2021/07/18 09:00:21;;;;;;;5.68;5.15;;;;;;;32.97;61.53;100348.78;20887688;28;20236;-58
2021/07/18 09:10:27;;;;;;;5.05;4.65;;;;;;;32.66;58.23;100338.16;20889549;28;20223;-58
2021/07/18 09:20:39;;;;;;;5.80;5.22;;;;;;;32.78;55.85;100344.53;20922728;28;20234;-58
2021/07/18 11:35:06;;;;;;;4.80;4.25;;;;;;;31.71;52.88;100299.69;20593423;27;8616016;-65
2021/07/18 11:45:13;;;;;;;4.72;4.32;;;;;;;31.82;51.89;100288.66;20885701;28;20625;-65
2021/07/18 11:55:16;;;;;;;4.78;4.30;;;;;;;32.61;49.47;100291.03;20883026;28;20315;-69
2021/07/18 12:05:16;;;;;;;4.82;4.53;;;;;;;31.81;50.93;100273.19;20822487;28;20365;-64
2021/07/18 12:15:17;;;;;;;12.43;5.90;;;;;;;31.49;51.61;100269.03;20788676;28;20224;-64
2021/07/18 12:25:18;;;;;;;4.95;4.60;;;;;;;31.30;52.80;100272.91;20806637;28;20252;-71
2021/07/18 12:35:19;;;;;;;5.05;4.60;;;;;;;31.10;51.27;100271.28;20887032;28;20254;-64
2021/07/18 12:45:22;;;;;;;7.07;5.60;;;;;;;31.14;52.08;100255.97;20836297;28;20318;-64
2021/07/18 12:55:42;;;;;;;5.32;4.93;;;;;;;31.38;51.82;100253.28;20830469;28;20228;-66
2021/07/18 13:05:43;;;;;;;5.00;4.70;;;;;;;31.09;49.92;100253.06;20829015;28;20231;-64
2021/07/18 13:16:10;;;;;;;5.40;4.93;;;;;;;31.39;49.16;100254.97;20869621;28;20219;-65
2021/07/18 13:26:34;;;;;;;5.63;5.10;;;;;;;31.68;47.09;100234.75;20883352;28;20235;-64
2021/07/18 13:36:34;;;;;;;5.20;4.75;;;;;;;31.85;48.87;100221.09;20849425;28;20632;-64
2021/07/18 13:46:35;;;;;;;5.10;4.70;;;;;;;32.25;49.10;100221.19;20907912;28;20306;-69
2021/07/18 13:56:36;;;;;;;5.60;5.20;;;;;;;31.77;50.84;100210.41;20898318;28;20712;-71
2021/07/18 14:06:37;;;;;;;5.35;4.90;;;;;;;32.08;50.79;100209.22;20905444;28;20224;-68
2021/07/18 14:36:40;;;;;;;4.70;4.40;;;;;;;33.01;48.87;100186.00;20469498;27;10656499;-67
2021/07/18 14:46:41;;;;;;;5.40;4.93;;;;;;;32.92;49.15;100183.66;20803859;28;20311;-69
2021/07/18 14:57:02;;;;;;;4.97;4.57;;;;;;;32.80;48.79;100176.50;20804996;28;20591;-72
2021/07/18 15:37:03;;;;;;;6.55;5.95;;;;;;;31.12;51.46;100178.19;20639899;27;8130246;-65
